Time;durP1;ratioP1;P1;durP2;ratioP2;P2;SDS_P1;SDS_P2;PMS_P1;PMS_P2;Temp;Humidity;BMP_temperature;BMP_pressure;BME280_temperature;BME280_humidity;BME280_pressure;Samples;Min_cycle;Max_cycle;Signal;HPM_P1;HPM_P2
2021/09/15 00:00:49;;;;;;;49.53;38.78;;;;;;;;;;5060506;28;20047;-87
2021/09/15 00:03:15;;;;;;;44.70;34.88;;;;;;;;;;5096626;28;20063;-87
2021/09/15 00:05:41;;;;;;;97.20;44.45;;;;;;;;;;5079072;28;20051;-88
2021/09/15 00:08:07;;;;;;;64.63;41.10;;;;;;;;;;5095786;28;20036;-87
2021/09/15 00:10:33;;;;;;;61.53;40.40;;;;;;;;;;5079065;28;20098;-88
2021/09/15 00:12:59;;;;;;;46.15;37.78;;;;;;;;;;5078656;28;20051;-89
2021/09/15 00:15:26;;;;;;;41.03;35.78;;;;;;;;;;5096553;28;20463;-88
2021/09/15 00:17:52;;;;;;;45.53;37.17;;;;;;;;;;5095734;28;20047;-87
2021/09/15 00:20:18;;;;;;;57.08;39.13;;;;;;;;;;5096024;28;20048;-88
2021/09/15 00:22:44;;;;;;;38.47;34.00;;;;;;;;;;5078553;28;20055;-87
2021/09/15 00:25:10;;;;;;;44.58;38.72;;;;;;;;;;5078536;28;20047;-87
2021/09/15 00:27:36;;;;;;;44.05;37.70;;;;;;;;;;5078956;28;20047;-88
2021/09/15 00:30:02;;;;;;;54.65;41.35;;;;;;;;;;5096243;28;20406;-87
2021/09/15 00:32:28;;;;;;;47.38;39.60;;;;;;;;;;5079262;28;20039;-87
2021/09/15 00:34:54;;;;;;;53.13;41.08;;;;;;;;;;5079246;28;20131;-88
2021/09/15 00:37:20;;;;;;;39.50;35.28;;;;;;;;;;5095477;28;20043;-87
2021/09/15 00:39:46;;;;;;;40.50;35.92;;;;;;;;;;5078368;28;20429;-90
2021/09/15 00:42:13;;;;;;;42.05;36.90;;;;;;;;;;5078630;28;20047;-88
2021/09/15 00:44:39;;;;;;;39.47;35.22;;;;;;;;;;5079094;28;20079;-88
2021/09/15 00:47:05;;;;;;;37.22;33.20;;;;;;;;;;5078533;28;20043;-88
2021/09/15 00:49:31;;;;;;;41.13;36.42;;;;;;;;;;5095587;28;20046;-88
2021/09/15 00:51:57;;;;;;;40.75;36.33;;;;;;;;;;5095069;28;20040;-86
2021/09/15 00:54:23;;;;;;;37.60;33.65;;;;;;;;;;5078594;28;20055;-88
2021/09/15 00:56:49;;;;;;;39.80;34.72;;;;;;;;;;5078466;28;20166;-90
2021/09/15 00:59:15;;;;;;;43.13;37.72;;;;;;;;;;5095664;28;20040;-87
2021/09/15 01:01:41;;;;;;;35.72;31.92;;;;;;;;;;5066690;28;20063;-87
2021/09/15 01:04:07;;;;;;;37.40;33.25;;;;;;;;;;5075911;28;20050;-87
2021/09/15 01:06:34;;;;;;;42.85;36.70;;;;;;;;;;5075321;28;20083;-87
2021/09/15 01:09:01;;;;;;;37.58;33.35;;;;;;;;;;5058520;28;20487;-87
2021/09/15 01:11:28;;;;;;;36.88;32.95;;;;;;;;;;5075176;28;20040;-87
2021/09/15 01:13:55;;;;;;;43.97;38.47;;;;;;;;;;5074481;28;20040;-86
2021/09/15 01:16:21;;;;;;;38.60;34.42;;;;;;;;;;5058688;28;20436;-88
2021/09/15 01:18:48;;;;;;;42.70;36.33;;;;;;;;;;5075790;28;20044;-89
2021/09/15 01:21:14;;;;;;;51.00;39.70;;;;;;;;;;5074979;28;20048;-88
2021/09/15 01:23:40;;;;;;;41.17;36.05;;;;;;;;;;5075062;28;20079;-88
2021/09/15 01:26:07;;;;;;;41.50;37.00;;;;;;;;;;5058210;28;20044;-87
2021/09/15 01:28:33;;;;;;;36.75;32.20;;;;;;;;;;5058462;28;20048;-87
2021/09/15 01:30:59;;;;;;;43.70;36.35;;;;;;;;;;5058768;28;20162;-87
2021/09/15 01:33:26;;;;;;;37.38;33.40;;;;;;;;;;5058905;28;20048;-87
2021/09/15 01:35:52;;;;;;;36.60;32.63;;;;;;;;;;5074827;28;20128;-87
2021/09/15 01:38:18;;;;;;;35.85;32.15;;;;;;;;;;5058044;28;20159;-87
2021/09/15 01:40:45;;;;;;;33.88;30.40;;;;;;;;;;5058812;28;20041;-87
2021/09/15 01:43:11;;;;;;;42.75;37.53;;;;;;;;;;5057683;28;20051;-87
2021/09/15 01:45:37;;;;;;;47.15;38.67;;;;;;;;;;5057588;28;20532;-87
2021/09/15 01:48:03;;;;;;;39.72;34.30;;;;;;;;;;5074548;28;20143;-87
2021/09/15 01:50:30;;;;;;;35.78;31.77;;;;;;;;;;5074543;28;20400;-87
2021/09/15 01:52:56;;;;;;;36.70;32.90;;;;;;;;;;5057742;28;20102;-86
2021/09/15 01:55:25;;;;;;;34.15;29.90;;;;;;;;;;5057760;28;20079;-86
2021/09/15 01:57:52;;;;;;;38.05;33.95;;;;;;;;;;5074987;28;20076;-88
2021/09/15 02:00:19;;;;;;;33.05;29.65;;;;;;;;;;5075039;28;20071;-87
2021/09/15 02:02:47;;;;;;;37.42;33.63;;;;;;;;;;5056939;28;20064;-87
2021/09/15 02:05:13;;;;;;;40.22;34.70;;;;;;;;;;5057127;28;20080;-87
2021/09/15 02:07:39;;;;;;;32.75;29.40;;;;;;;;;;5057477;28;20048;-88
2021/09/15 02:10:06;;;;;;;33.83;30.27;;;;;;;;;;5057353;28;20135;-88
2021/09/15 02:12:32;;;;;;;35.95;31.33;;;;;;;;;;5057660;28;20465;-86
2021/09/15 02:14:58;;;;;;;36.45;32.70;;;;;;;;;;5057965;28;20044;-87
2021/09/15 02:17:24;;;;;;;37.33;32.97;;;;;;;;;;5057304;28;20087;-88
2021/09/15 02:19:50;;;;;;;32.70;29.30;;;;;;;;;;5057421;28;20186;-87
2021/09/15 02:22:17;;;;;;;35.92;32.28;;;;;;;;;;5057487;28;20048;-86
2021/09/15 02:24:43;;;;;;;32.38;29.15;;;;;;;;;;5073552;28;20086;-87
2021/09/15 02:27:09;;;;;;;31.27;27.98;;;;;;;;;;5057758;28;20359;-87
2021/09/15 02:29:35;;;;;;;32.22;28.90;;;;;;;;;;5057096;28;20044;-88
2021/09/15 02:32:01;;;;;;;34.30;30.80;;;;;;;;;;5073767;28;20049;-86
2021/09/15 02:34:27;;;;;;;36.08;32.28;;;;;;;;;;5073598;28;20106;-86
2021/09/15 02:36:53;;;;;;;32.28;29.02;;;;;;;;;;5056868;28;20048;-87
2021/09/15 02:39:20;;;;;;;37.53;33.65;;;;;;;;;;5073571;28;20045;-87
2021/09/15 02:41:46;;;;;;;32.33;28.90;;;;;;;;;;5073577;28;20101;-87
2021/09/15 02:44:12;;;;;;;30.17;27.15;;;;;;;;;;5072980;28;20033;-87
2021/09/15 02:46:38;;;;;;;30.77;27.70;;;;;;;;;;5056866;28;20473;-86
2021/09/15 02:49:04;;;;;;;31.85;28.58;;;;;;;;;;5073565;28;20131;-86
2021/09/15 02:51:30;;;;;;;30.30;27.27;;;;;;;;;;5073338;28;20045;-87
2021/09/15 02:53:57;;;;;;;32.28;29.00;;;;;;;;;;5056636;28;20089;-86
2021/09/15 02:56:23;;;;;;;30.75;27.48;;;;;;;;;;5073992;28;20059;-87
2021/09/15 02:58:49;;;;;;;29.05;26.10;;;;;;;;;;5056243;28;20082;-89
2021/09/15 03:01:15;;;;;;;29.17;26.17;;;;;;;;;;5060648;28;20055;-86
2021/09/15 03:03:41;;;;;;;33.42;29.88;;;;;;;;;;5080607;28;20447;-87
2021/09/15 03:06:07;;;;;;;28.90;26.05;;;;;;;;;;5080546;28;20047;-87
2021/09/15 03:08:33;;;;;;;29.25;26.33;;;;;;;;;;5097479;28;20043;-87
2021/09/15 03:10:59;;;;;;;28.42;25.52;;;;;;;;;;5079666;28;20039;-86
2021/09/15 03:13:25;;;;;;;31.15;27.75;;;;;;;;;;5079718;28;20047;-87
2021/09/15 03:15:51;;;;;;;31.63;28.48;;;;;;;;;;5079535;28;20055;-88
2021/09/15 03:18:17;;;;;;;31.63;28.42;;;;;;;;;;5079771;28;20039;-87
2021/09/15 03:20:43;;;;;;;29.73;26.73;;;;;;;;;;5079394;28;20079;-86
2021/09/15 03:23:10;;;;;;;33.20;29.73;;;;;;;;;;5079036;28;20411;-86
2021/09/15 03:25:36;;;;;;;31.40;28.20;;;;;;;;;;5095623;28;20082;-87
2021/09/15 03:28:02;;;;;;;28.13;25.27;;;;;;;;;;5079442;28;20055;-87
2021/09/15 03:30:28;;;;;;;30.08;27.05;;;;;;;;;;5079175;28;20043;-87
2021/09/15 03:32:54;;;;;;;33.47;29.80;;;;;;;;;;5079052;28;20040;-88
2021/09/15 03:35:20;;;;;;;36.55;32.03;;;;;;;;;;5079396;28;20048;-87
2021/09/15 03:37:46;;;;;;;30.60;27.42;;;;;;;;;;5096260;28;20047;-85
2021/09/15 03:40:12;;;;;;;32.60;29.17;;;;;;;;;;5079250;28;20039;-86
2021/09/15 03:42:38;;;;;;;34.30;30.80;;;;;;;;;;5079301;28;20048;-86
2021/09/15 03:45:05;;;;;;;36.58;32.63;;;;;;;;;;5078633;28;20092;-87
2021/09/15 03:47:31;;;;;;;31.58;28.30;;;;;;;;;;5095613;28;20040;-87
2021/09/15 03:49:57;;;;;;;33.10;29.55;;;;;;;;;;5079719;28;20134;-87
2021/09/15 03:52:23;;;;;;;34.17;30.55;;;;;;;;;;5079068;28;20047;-87
2021/09/15 03:54:49;;;;;;;30.48;27.27;;;;;;;;;;5079294;28;20096;-89
2021/09/15 03:57:15;;;;;;;31.35;28.08;;;;;;;;;;5079162;28;20100;-87
2021/09/15 03:59:41;;;;;;;34.90;31.17;;;;;;;;;;5079719;28;20067;-87
2021/09/15 04:02:08;;;;;;;32.88;29.27;;;;;;;;;;5078336;28;20581;-87
2021/09/15 04:04:34;;;;;;;34.95;31.23;;;;;;;;;;5095290;28;20123;-87
2021/09/15 04:07:00;;;;;;;32.00;28.70;;;;;;;;;;5078795;28;20044;-87
2021/09/15 04:09:26;;;;;;;33.38;29.83;;;;;;;;;;5095761;28;20113;-86
2021/09/15 04:11:52;;;;;;;35.17;31.35;;;;;;;;;;5078523;28;20084;-87
2021/09/15 04:14:18;;;;;;;33.78;29.83;;;;;;;;;;5079007;28;20050;-88
2021/09/15 04:16:44;;;;;;;30.08;26.88;;;;;;;;;;5079612;28;20430;-88
2021/09/15 04:19:10;;;;;;;36.20;32.13;;;;;;;;;;5095553;28;20047;-87
2021/09/15 04:21:37;;;;;;;32.78;29.27;;;;;;;;;;5095550;28;20134;-89
2021/09/15 04:32:02;;;;;;;32.90;29.38;;;;;;;;;;5095565;28;20524;-88
2021/09/15 04:34:28;;;;;;;35.13;31.13;;;;;;;;;;5078993;28;20479;-89
2021/09/15 04:36:54;;;;;;;34.25;30.45;;;;;;;;;;5082396;28;20047;-90
2021/09/15 04:39:20;;;;;;;32.55;28.90;;;;;;;;;;5083059;28;20534;-88
2021/09/15 04:41:46;;;;;;;50.15;39.35;;;;;;;;;;5082761;28;20146;-88
2021/09/15 04:44:12;;;;;;;45.05;38.03;;;;;;;;;;5082424;28;20040;-88
2021/09/15 04:46:38;;;;;;;51.30;40.40;;;;;;;;;;5099499;28;20089;-88
2021/09/15 04:49:04;;;;;;;48.03;39.30;;;;;;;;;;5082768;28;20054;-88
2021/09/15 04:51:30;;;;;;;60.95;44.15;;;;;;;;;;5081936;28;20100;-88
2021/09/15 04:53:56;;;;;;;59.72;44.90;;;;;;;;;;5098918;28;20505;-90
2021/09/15 04:56:22;;;;;;;56.72;43.33;;;;;;;;;;5082464;28;20043;-87
2021/09/15 04:58:49;;;;;;;50.95;40.20;;;;;;;;;;5082176;28;20048;-86
2021/09/15 05:01:15;;;;;;;46.55;38.38;;;;;;;;;;5081919;28;20084;-86
2021/09/15 05:03:41;;;;;;;55.17;42.30;;;;;;;;;;5081498;28;20399;-86
2021/09/15 05:06:07;;;;;;;38.33;33.47;;;;;;;;;;5099593;28;20044;-85
2021/09/15 05:08:33;;;;;;;51.38;40.42;;;;;;;;;;5098967;28;20100;-87
2021/09/15 05:10:59;;;;;;;45.67;37.42;;;;;;;;;;5098617;28;20047;-87
2021/09/15 05:13:25;;;;;;;42.65;35.47;;;;;;;;;;5098725;28;20128;-87
2021/09/15 05:15:51;;;;;;;39.25;33.00;;;;;;;;;;5098610;28;20044;-87
2021/09/15 05:18:17;;;;;;;43.47;35.80;;;;;;;;;;5098828;28;20041;-87
2021/09/15 05:20:43;;;;;;;42.30;35.80;;;;;;;;;;5082010;28;20046;-89
2021/09/15 05:23:09;;;;;;;35.80;31.88;;;;;;;;;;5082766;28;20048;-90
2021/09/15 05:25:35;;;;;;;39.50;33.60;;;;;;;;;;5081899;28;20043;-89
2021/09/15 05:28:03;;;;;;;47.45;39.33;;;;;;;;;;5083046;28;20061;-89
2021/09/15 05:30:29;;;;;;;41.47;33.97;;;;;;;;;;5098953;28;20047;-90
2021/09/15 05:32:55;;;;;;;47.45;37.38;;;;;;;;;;5098918;28;20043;-92
2021/09/15 05:35:21;;;;;;;65.60;46.80;;;;;;;;;;5082071;28;20076;-90
2021/09/15 05:37:47;;;;;;;57.10;41.83;;;;;;;;;;5081944;28;20039;-90
2021/09/15 05:40:13;;;;;;;64.05;46.38;;;;;;;;;;5099665;28;20132;-90
2021/09/15 05:42:40;;;;;;;64.38;45.60;;;;;;;;;;5082256;28;20043;-90
2021/09/15 05:45:06;;;;;;;62.13;44.47;;;;;;;;;;5081669;28;20524;-90
2021/09/15 05:47:32;;;;;;;77.47;49.17;;;;;;;;;;5081016;28;20083;-89
2021/09/15 05:49:59;;;;;;;67.75;46.17;;;;;;;;;;5081645;28;20048;-91
2021/09/15 05:52:26;;;;;;;57.58;41.90;;;;;;;;;;5082101;28;20043;-89
2021/09/15 05:54:52;;;;;;;53.95;40.70;;;;;;;;;;5081810;28;20395;-90
2021/09/15 05:57:18;;;;;;;49.95;40.15;;;;;;;;;;5082163;28;20376;-86
2021/09/15 05:59:44;;;;;;;51.92;40.30;;;;;;;;;;5081973;28;20241;-87
2021/09/15 06:02:10;;;;;;;48.47;38.25;;;;;;;;;;5097652;28;20059;-87
2021/09/15 06:04:36;;;;;;;44.75;36.80;;;;;;;;;;5098484;28;20426;-88
2021/09/15 06:07:02;;;;;;;52.78;42.42;;;;;;;;;;5097903;28;20511;-87
2021/09/15 06:09:28;;;;;;;50.45;40.72;;;;;;;;;;5081184;28;20089;-87
2021/09/15 06:11:54;;;;;;;59.03;45.33;;;;;;;;;;5081846;28;20047;-90
2021/09/15 06:14:21;;;;;;;39.95;33.90;;;;;;;;;;5097746;28;20043;-87
2021/09/15 06:16:47;;;;;;;41.30;33.67;;;;;;;;;;5081119;28;20365;-87
2021/09/15 06:19:13;;;;;;;47.50;38.78;;;;;;;;;;5080537;28;20139;-87
2021/09/15 06:21:39;;;;;;;43.83;35.33;;;;;;;;;;5097787;28;20046;-88
2021/09/15 06:24:05;;;;;;;39.58;33.83;;;;;;;;;;5098098;28;20417;-88
2021/09/15 06:26:31;;;;;;;39.70;34.55;;;;;;;;;;5080582;28;20087;-87
2021/09/15 06:28:57;;;;;;;46.70;37.28;;;;;;;;;;5080818;28;20051;-89
2021/09/15 06:31:24;;;;;;;44.83;37.70;;;;;;;;;;5081256;28;20134;-87
2021/09/15 06:33:50;;;;;;;51.08;40.97;;;;;;;;;;5097240;28;20123;-86
2021/09/15 06:36:19;;;;;;;48.83;38.95;;;;;;;;;;5097951;28;20084;-87
2021/09/15 06:38:45;;;;;;;60.85;45.60;;;;;;;;;;5080055;28;20476;-87
2021/09/15 06:41:11;;;;;;;49.38;40.03;;;;;;;;;;5080258;28;20044;-87
2021/09/15 06:43:39;;;;;;;50.30;40.97;;;;;;;;;;5080376;28;20052;-88
2021/09/15 06:46:05;;;;;;;43.75;36.15;;;;;;;;;;5080037;28;20083;-87
2021/09/15 06:48:31;;;;;;;47.85;37.90;;;;;;;;;;5080988;28;20130;-87
2021/09/15 06:50:57;;;;;;;49.45;40.47;;;;;;;;;;5080073;28;20051;-88
2021/09/15 06:53:24;;;;;;;56.10;42.90;;;;;;;;;;5079688;28;20051;-88
2021/09/15 06:55:50;;;;;;;52.03;41.10;;;;;;;;;;5080367;28;20122;-87
2021/09/15 06:58:16;;;;;;;56.85;43.42;;;;;;;;;;5079852;28;20055;-87
2021/09/15 07:00:42;;;;;;;59.10;43.80;;;;;;;;;;5080218;28;20048;-87
2021/09/15 07:03:08;;;;;;;58.83;44.95;;;;;;;;;;5097404;28;20052;-87
2021/09/15 07:05:36;;;;;;;83.95;51.90;;;;;;;;;;5079887;28;20426;-86
2021/09/15 07:08:02;;;;;;;63.97;45.83;;;;;;;;;;5079908;28;20507;-88
2021/09/15 07:10:31;;;;;;;49.95;40.25;;;;;;;;;;5097494;28;20039;-88
2021/09/15 07:12:57;;;;;;;61.00;45.80;;;;;;;;;;5096545;28;20050;-88
2021/09/15 07:15:23;;;;;;;54.90;41.63;;;;;;;;;;5097095;28;20047;-86
2021/09/15 07:17:49;;;;;;;65.10;44.63;;;;;;;;;;5080463;28;20046;-88
2021/09/15 07:20:16;;;;;;;65.35;43.13;;;;;;;;;;5080216;28;20100;-87
2021/09/15 07:22:42;;;;;;;75.53;45.70;;;;;;;;;;5096452;28;20043;-87
2021/09/15 07:25:08;;;;;;;77.43;48.30;;;;;;;;;;5079451;28;20089;-88
2021/09/15 07:27:34;;;;;;;71.97;45.85;;;;;;;;;;5096630;28;20039;-87
2021/09/15 07:30:01;;;;;;;77.55;46.35;;;;;;;;;;5079532;28;20043;-89
2021/09/15 07:32:27;;;;;;;78.60;47.33;;;;;;;;;;5097088;28;20128;-88
2021/09/15 07:34:54;;;;;;;94.78;51.67;;;;;;;;;;5079378;28;20042;-87
2021/09/15 07:37:20;;;;;;;79.75;48.25;;;;;;;;;;5079433;28;20101;-87
2021/09/15 07:39:46;;;;;;;68.43;46.72;;;;;;;;;;5079394;28;20047;-87
2021/09/15 07:42:12;;;;;;;67.13;43.67;;;;;;;;;;5079069;28;20054;-87
2021/09/15 07:44:39;;;;;;;85.18;47.25;;;;;;;;;;5079096;28;20044;-87
2021/09/15 07:47:05;;;;;;;69.80;45.05;;;;;;;;;;5096046;28;20079;-87
2021/09/15 07:49:31;;;;;;;86.60;45.97;;;;;;;;;;5096088;28;20054;-87
2021/09/15 07:51:58;;;;;;;63.28;43.42;;;;;;;;;;5095726;28;20126;-87
2021/09/15 07:54:24;;;;;;;62.10;43.80;;;;;;;;;;5079216;28;20116;-87
2021/09/15 07:56:50;;;;;;;59.38;41.15;;;;;;;;;;5078903;28;20066;-87
2021/09/15 07:59:16;;;;;;;55.85;41.15;;;;;;;;;;5079077;28;20047;-87
2021/09/15 08:01:42;;;;;;;60.90;42.80;;;;;;;;;;5078907;28;20149;-87
2021/09/15 08:04:08;;;;;;;57.83;40.65;;;;;;;;;;5079766;28;20044;-88
2021/09/15 08:06:34;;;;;;;63.58;45.30;;;;;;;;;;5078789;28;20055;-87
2021/09/15 08:09:00;;;;;;;51.78;39.83;;;;;;;;;;5079096;28;20151;-89
2021/09/15 08:11:26;;;;;;;64.60;43.17;;;;;;;;;;5085284;28;20044;-88
2021/09/15 08:13:52;;;;;;;55.15;40.97;;;;;;;;;;5085666;28;20050;-89
2021/09/15 08:16:20;;;;;;;62.25;44.47;;;;;;;;;;5085908;28;20134;-88
2021/09/15 08:18:46;;;;;;;59.45;43.88;;;;;;;;;;5084989;28;20510;-85
2021/09/15 08:21:12;;;;;;;59.38;43.08;;;;;;;;;;5102468;28;20043;-86
2021/09/15 08:23:38;;;;;;;60.85;41.80;;;;;;;;;;5086231;28;20051;-86
2021/09/15 08:26:04;;;;;;;60.47;44.75;;;;;;;;;;5085453;28;20138;-88
2021/09/15 08:28:36;;;;;;;61.00;42.72;;;;;;;;;;5085561;28;20073;-85
2021/09/15 08:31:02;;;;;;;69.53;46.22;;;;;;;;;;5085327;28;20089;-88
2021/09/15 08:33:28;;;;;;;69.13;47.20;;;;;;;;;;5102629;28;20101;-85
2021/09/15 08:35:54;;;;;;;57.58;41.47;;;;;;;;;;5102504;28;20096;-85
2021/09/15 08:38:20;;;;;;;60.22;42.10;;;;;;;;;;5085678;28;20075;-86
2021/09/15 08:40:46;;;;;;;65.65;44.25;;;;;;;;;;5085195;28;20062;-86
2021/09/15 08:43:12;;;;;;;79.07;49.60;;;;;;;;;;5102519;28;20070;-86
2021/09/15 08:45:38;;;;;;;69.05;46.83;;;;;;;;;;5102064;28;20130;-86
2021/09/15 08:48:05;;;;;;;58.53;43.80;;;;;;;;;;5085298;28;20116;-87
2021/09/15 08:50:31;;;;;;;64.25;46.20;;;;;;;;;;5085392;28;20052;-85
2021/09/15 08:52:57;;;;;;;58.47;42.72;;;;;;;;;;5102475;28;20052;-85
2021/09/15 08:55:23;;;;;;;61.65;43.20;;;;;;;;;;5085353;28;20048;-87
2021/09/15 08:57:50;;;;;;;55.05;42.17;;;;;;;;;;5101784;28;20480;-85
2021/09/15 09:00:16;;;;;;;65.07;46.35;;;;;;;;;;5085432;28;20059;-86
2021/09/15 09:02:47;;;;;;;57.42;42.58;;;;;;;;;;5085450;28;20117;-85
2021/09/15 09:05:13;;;;;;;64.82;45.50;;;;;;;;;;5101779;28;20040;-86
2021/09/15 09:07:41;;;;;;;61.50;44.05;;;;;;;;;;5085136;28;20040;-85
2021/09/15 09:10:08;;;;;;;62.38;44.88;;;;;;;;;;5085154;28;20460;-86
2021/09/15 09:12:36;;;;;;;56.95;40.33;;;;;;;;;;5102764;28;20035;-87
2021/09/15 09:15:12;;;;;;;63.45;44.50;;;;;;;;;;5085095;28;20059;-87
2021/09/15 09:17:38;;;;;;;64.15;44.58;;;;;;;;;;5085348;28;20047;-87
2021/09/15 09:20:23;;;;;;;66.15;46.22;;;;;;;;;;5102597;28;20058;-87
2021/09/15 09:23:04;;;;;;;67.55;44.60;;;;;;;;;;5081406;28;20494;-86
2021/09/15 09:25:34;;;;;;;66.05;43.80;;;;;;;;;;5081244;28;20040;-85
2021/09/15 09:28:01;;;;;;;65.65;45.30;;;;;;;;;;5098844;28;20096;-86
2021/09/15 09:30:38;;;;;;;56.72;41.30;;;;;;;;;;5099195;28;20472;-86
2021/09/15 09:33:05;;;;;;;74.55;47.40;;;;;;;;;;5098536;28;20425;-89
2021/09/15 09:35:47;;;;;;;58.97;41.42;;;;;;;;;;5082353;28;20368;-87
2021/09/15 09:38:25;;;;;;;64.20;44.20;;;;;;;;;;5081862;28;20558;-86
2021/09/15 09:40:55;;;;;;;66.47;45.33;;;;;;;;;;5098604;28;20411;-86
2021/09/15 09:43:21;;;;;;;65.60;42.13;;;;;;;;;;5098435;28;20087;-86
2021/09/15 09:45:48;;;;;;;66.90;44.10;;;;;;;;;;5081465;28;20126;-86
2021/09/15 09:48:33;;;;;;;58.58;41.97;;;;;;;;;;5081256;28;20482;-86
2021/09/15 09:51:00;;;;;;;60.47;42.40;;;;;;;;;;5098674;28;20086;-86
2021/09/15 09:53:27;;;;;;;60.83;41.97;;;;;;;;;;5098309;28;20048;-86
2021/09/15 09:55:54;;;;;;;57.92;41.65;;;;;;;;;;5081998;28;20471;-85
2021/09/15 09:58:24;;;;;;;56.42;39.85;;;;;;;;;;5098078;28;20048;-86
2021/09/15 10:00:54;;;;;;;64.25;43.67;;;;;;;;;;5081200;28;20458;-85
2021/09/15 10:03:20;;;;;;;63.00;41.90;;;;;;;;;;5080493;28;20150;-86
2021/09/15 10:05:47;;;;;;;66.70;42.10;;;;;;;;;;5081327;28;20054;-86
2021/09/15 10:08:13;;;;;;;56.22;38.53;;;;;;;;;;5081751;28;20071;-86
2021/09/15 10:10:42;;;;;;;62.38;39.97;;;;;;;;;;5081008;28;20050;-86
2021/09/15 10:13:09;;;;;;;61.88;42.05;;;;;;;;;;5080558;28;20054;-86
2021/09/15 10:15:43;;;;;;;62.42;40.85;;;;;;;;;;5081106;28;20057;-86
2021/09/15 10:18:11;;;;;;;63.97;42.07;;;;;;;;;;5097662;28;20087;-88
2021/09/15 10:20:38;;;;;;;61.38;38.75;;;;;;;;;;5097675;28;20043;-86
2021/09/15 10:23:24;;;;;;;58.97;37.83;;;;;;;;;;5080531;28;20047;-89
2021/09/15 10:25:50;;;;;;;55.05;36.25;;;;;;;;;;5080284;28;20042;-86
2021/09/15 10:28:17;;;;;;;61.40;39.10;;;;;;;;;;5098321;28;20047;-87
2021/09/15 10:30:43;;;;;;;60.63;38.92;;;;;;;;;;5097730;28;20052;-86
2021/09/15 10:33:29;;;;;;;57.30;39.35;;;;;;;;;;5096958;28;20052;-87
2021/09/15 10:35:55;;;;;;;56.60;38.80;;;;;;;;;;5097285;28;20047;-86
2021/09/15 10:38:41;;;;;;;59.88;38.13;;;;;;;;;;5081294;28;20134;-85
2021/09/15 10:41:39;;;;;;;53.47;36.28;;;;;;;;;;5080648;28;20067;-88
2021/09/15 10:44:16;;;;;;;52.88;36.50;;;;;;;;;;5036553;28;20052;-87
2021/09/15 10:46:42;;;;;;;53.28;36.45;;;;;;;;;;5097835;28;20047;-87
2021/09/15 10:49:24;;;;;;;50.63;34.88;;;;;;;;;;5080097;28;20096;-88
2021/09/15 10:52:08;;;;;;;51.83;35.58;;;;;;;;;;5080023;28;20047;-85
2021/09/15 10:54:48;;;;;;;50.20;35.08;;;;;;;;;;5080398;28;20051;-87
2021/09/15 10:57:18;;;;;;;50.70;36.47;;;;;;;;;;5096919;28;20047;-86
2021/09/15 10:59:48;;;;;;;53.28;37.15;;;;;;;;;;5080748;28;20104;-87
2021/09/15 11:02:28;;;;;;;53.10;36.03;;;;;;;;;;5068274;28;20052;-86
2021/09/15 11:04:54;;;;;;;46.13;31.00;;;;;;;;;;5055991;28;20101;-87
2021/09/15 11:07:39;;;;;;;49.13;33.20;;;;;;;;;;5056639;28;20132;-87
2021/09/15 11:10:05;;;;;;;46.65;32.83;;;;;;;;;;5056382;28;20048;-88
2021/09/15 11:12:45;;;;;;;52.50;35.35;;;;;;;;;;5056291;28;20048;-88
2021/09/15 11:15:27;;;;;;;49.38;35.10;;;;;;;;;;5056218;28;20144;-88
2021/09/15 11:17:54;;;;;;;47.17;33.08;;;;;;;;;;5072990;28;20041;-87
2021/09/15 11:20:27;;;;;;;45.40;30.98;;;;;;;;;;5056095;28;20049;-86
2021/09/15 11:22:54;;;;;;;46.25;32.85;;;;;;;;;;5051475;28;20071;-86
2021/09/15 11:25:21;;;;;;;44.92;32.83;;;;;;;;;;5055893;28;20420;-87
2021/09/15 11:28:06;;;;;;;44.55;32.25;;;;;;;;;;5056744;28;20377;-87
2021/09/15 11:30:32;;;;;;;46.95;32.97;;;;;;;;;;5056137;28;20048;-88
2021/09/15 11:32:59;;;;;;;43.80;30.85;;;;;;;;;;5072539;28;20079;-86
2021/09/15 11:35:25;;;;;;;47.75;33.17;;;;;;;;;;5072488;28;20044;-86
2021/09/15 11:37:51;;;;;;;44.90;31.42;;;;;;;;;;5072587;28;20096;-87
2021/09/15 11:40:18;;;;;;;40.85;29.50;;;;;;;;;;5055869;28;20401;-87
2021/09/15 11:42:44;;;;;;;39.35;29.77;;;;;;;;;;5072513;28;20485;-86
2021/09/15 11:45:14;;;;;;;38.42;28.60;;;;;;;;;;5071775;28;20044;-90
2021/09/15 11:47:44;;;;;;;35.60;27.33;;;;;;;;;;5055797;28;20055;-87
2021/09/15 11:50:23;;;;;;;30.98;22.75;;;;;;;;;;5055707;28;20154;-88
2021/09/15 11:52:54;;;;;;;29.92;22.77;;;;;;;;;;5055474;28;20476;-86
2021/09/15 11:55:20;;;;;;;30.05;22.63;;;;;;;;;;5055878;28;20142;-86
2021/09/15 11:57:54;;;;;;;27.88;21.90;;;;;;;;;;5055833;28;20048;-87
2021/09/15 12:00:20;;;;;;;26.90;20.37;;;;;;;;;;5055986;28;20088;-86
2021/09/15 12:02:47;;;;;;;28.98;21.88;;;;;;;;;;5055189;28;20382;-86
2021/09/15 12:05:14;;;;;;;26.83;21.08;;;;;;;;;;5072007;28;20094;-86
2021/09/15 12:07:43;;;;;;;27.08;20.90;;;;;;;;;;5055809;28;20055;-86
2021/09/15 12:10:11;;;;;;;25.60;20.80;;;;;;;;;;5072918;28;20044;-87
2021/09/15 12:12:37;;;;;;;26.55;20.88;;;;;;;;;;5055717;28;20049;-86
2021/09/15 12:15:06;;;;;;;23.75;19.50;;;;;;;;;;5055296;28;20135;-86
2021/09/15 12:17:33;;;;;;;23.30;19.38;;;;;;;;;;5055407;28;20094;-87
2021/09/15 12:19:59;;;;;;;23.00;17.50;;;;;;;;;;5072205;28;20095;-87
2021/09/15 12:22:31;;;;;;;24.95;19.98;;;;;;;;;;5055363;28;20050;-87
2021/09/15 12:25:06;;;;;;;21.85;17.00;;;;;;;;;;5072751;28;20123;-86
2021/09/15 12:27:33;;;;;;;17.05;14.15;;;;;;;;;;5072670;28;20052;-86
2021/09/15 12:30:02;;;;;;;15.45;12.57;;;;;;;;;;5071782;28;20493;-86
2021/09/15 12:32:29;;;;;;;17.40;12.88;;;;;;;;;;5055348;28;20040;-85
2021/09/15 12:34:55;;;;;;;14.60;12.77;;;;;;;;;;5055523;28;20040;-87
2021/09/15 12:37:22;;;;;;;13.60;12.07;;;;;;;;;;5071793;28;20113;-86
2021/09/15 12:39:49;;;;;;;14.02;12.52;;;;;;;;;;5055280;28;20049;-86
2021/09/15 12:42:16;;;;;;;13.93;12.13;;;;;;;;;;5055162;28;20055;-86
2021/09/15 12:44:42;;;;;;;14.13;11.70;;;;;;;;;;5071962;28;20041;-86
2021/09/15 12:47:08;;;;;;;13.10;11.70;;;;;;;;;;5072554;28;20055;-89
2021/09/15 12:49:36;;;;;;;12.65;11.23;;;;;;;;;;5055066;28;20048;-86
2021/09/15 12:52:15;;;;;;;14.57;11.27;;;;;;;;;;5055073;28;20082;-86
2021/09/15 12:54:54;;;;;;;14.00;12.30;;;;;;;;;;5055866;28;20133;-86
2021/09/15 12:57:25;;;;;;;14.32;10.77;;;;;;;;;;5073895;28;20051;-86
2021/09/15 12:59:51;;;;;;;11.40;10.13;;;;;;;;;;5059626;28;20143;-87
2021/09/15 13:02:17;;;;;;;15.05;11.85;;;;;;;;;;5058357;28;20060;-86
2021/09/15 13:04:43;;;;;;;12.75;9.75;;;;;;;;;;5058673;28;20083;-86
2021/09/15 13:07:10;;;;;;;14.80;10.63;;;;;;;;;;5058554;28;20045;-86
2021/09/15 13:09:36;;;;;;;9.95;8.57;;;;;;;;;;5058552;28;20481;-86
2021/09/15 13:12:02;;;;;;;10.30;8.88;;;;;;;;;;5075287;28;20041;-86
2021/09/15 13:14:28;;;;;;;10.18;8.73;;;;;;;;;;5074820;28;20046;-85
2021/09/15 13:16:54;;;;;;;10.00;9.00;;;;;;;;;;5058408;28;20052;-86
2021/09/15 13:19:20;;;;;;;10.07;9.02;;;;;;;;;;5058446;28;20040;-86
2021/09/15 13:21:46;;;;;;;11.38;10.05;;;;;;;;;;5075877;28;20135;-86
2021/09/15 13:24:13;;;;;;;10.60;9.50;;;;;;;;;;5058246;28;20044;-85
2021/09/15 13:26:39;;;;;;;11.27;10.10;;;;;;;;;;5074685;28;20044;-86
2021/09/15 13:29:05;;;;;;;11.35;9.95;;;;;;;;;;5058594;28;20162;-86
2021/09/15 13:31:32;;;;;;;10.60;8.27;;;;;;;;;;5075096;28;20041;-86
2021/09/15 13:33:58;;;;;;;10.60;8.52;;;;;;;;;;5058229;28;20417;-86
2021/09/15 13:36:24;;;;;;;9.48;8.48;;;;;;;;;;5074924;28;20051;-86
2021/09/15 13:38:50;;;;;;;9.80;7.65;;;;;;;;;;5058359;28;20044;-85
2021/09/15 13:41:16;;;;;;;10.23;8.48;;;;;;;;;;5057992;28;20154;-86
2021/09/15 13:43:42;;;;;;;10.00;8.57;;;;;;;;;;5058089;28;20048;-86
2021/09/15 13:46:09;;;;;;;12.85;11.00;;;;;;;;;;5057636;28;20048;-87
2021/09/15 13:48:35;;;;;;;13.35;11.88;;;;;;;;;;5057941;28;20061;-85
2021/09/15 13:51:01;;;;;;;13.88;11.52;;;;;;;;;;5057922;28;20106;-85
2021/09/15 13:53:27;;;;;;;14.18;11.65;;;;;;;;;;5074460;28;20059;-85
2021/09/15 13:55:53;;;;;;;12.85;10.07;;;;;;;;;;5074194;28;20052;-86
2021/09/15 13:58:20;;;;;;;14.00;12.30;;;;;;;;;;5074341;28;20044;-85
2021/09/15 14:00:46;;;;;;;14.77;12.88;;;;;;;;;;5074200;28;20078;-86
2021/09/15 14:03:12;;;;;;;19.95;15.57;;;;;;;;;;5073995;28;20401;-87
2021/09/15 14:05:38;;;;;;;21.80;17.10;;;;;;;;;;5057901;28;20354;-87
2021/09/15 14:08:05;;;;;;;23.63;18.50;;;;;;;;;;5057217;28;20071;-87
2021/09/15 14:10:31;;;;;;;23.23;17.08;;;;;;;;;;5058169;28;20048;-86
2021/09/15 14:12:58;;;;;;;24.40;19.95;;;;;;;;;;5074290;28;20040;-87
2021/09/15 14:15:25;;;;;;;26.27;19.38;;;;;;;;;;5057140;28;20400;-87
2021/09/15 14:17:51;;;;;;;26.08;17.58;;;;;;;;;;5057929;28;20045;-87
2021/09/15 14:20:18;;;;;;;20.10;15.40;;;;;;;;;;5057201;28;20089;-87
2021/09/15 14:22:44;;;;;;;18.95;14.70;;;;;;;;;;5058055;28;20495;-87
2021/09/15 14:25:11;;;;;;;18.52;13.00;;;;;;;;;;5074579;28;20372;-89
2021/09/15 14:27:37;;;;;;;9.52;7.35;;;;;;;;;;5057184;28;20477;-87